createdAt,value
2019-04-04T16:24:49.264Z,1.80
2019-04-04T16:27:24.279Z,2.00
2019-04-04T16:29:55.618Z,2.22
2019-04-04T16:32:24.503Z,1.90
2019-04-04T16:35:02.457Z,2.30
2019-04-04T16:37:32.523Z,2.40
2019-04-04T16:40:08.909Z,2.20
2019-04-04T16:42:38.502Z,1.85
2019-04-04T16:45:07.878Z,2.12
2019-04-04T16:47:36.671Z,2.10
2019-04-04T16:50:12.455Z,2.35
2019-04-04T16:52:42.516Z,2.30
2019-04-04T16:55:12.228Z,2.23
2019-04-04T16:57:48.271Z,2.37
2019-04-04T17:00:20.754Z,2.03
2019-04-04T17:02:48.557Z,2.50
2019-04-04T17:05:24.092Z,2.50
2019-04-04T17:07:52.871Z,2.22
2019-04-04T17:10:22.717Z,2.20
2019-04-04T17:12:59.050Z,2.20
2019-04-04T17:15:27.877Z,2.30
2019-04-04T17:17:57.036Z,2.27
2019-04-04T17:20:32.654Z,2.20
2019-04-04T17:23:21.515Z,2.47
2019-04-04T17:25:57.109Z,2.70
2019-04-04T17:28:26.085Z,2.90
2019-04-04T17:30:55.474Z,2.75
2019-04-04T17:33:30.969Z,2.77
2019-04-04T17:36:00.334Z,2.80
2019-04-04T17:38:29.560Z,2.40
2019-04-04T17:41:04.903Z,2.40
2019-04-04T17:43:33.619Z,2.80
2019-04-04T17:46:03.765Z,2.20
2019-04-04T17:48:39.455Z,2.22
2019-04-04T17:51:08.202Z,2.42
2019-04-04T17:53:36.920Z,2.45
2019-04-04T17:56:13.352Z,2.58
2019-04-04T17:58:43.270Z,2.60
2019-04-04T18:01:13.277Z,2.72
2019-04-04T18:03:49.569Z,2.60
2019-04-04T18:06:18.264Z,2.77
2019-04-04T18:08:46.968Z,2.37
2019-04-04T18:11:22.291Z,2.58
2019-04-04T18:13:51.113Z,2.30
2019-04-04T18:16:19.871Z,2.65
2019-04-04T18:18:54.888Z,2.40
2019-04-04T18:21:23.921Z,2.70
2019-04-04T18:24:14.333Z,2.42
2019-04-04T18:26:43.042Z,2.70
2019-04-04T18:29:12.044Z,2.50
2019-04-04T18:31:47.504Z,2.52
2019-04-04T18:34:16.630Z,2.92
2019-04-04T18:36:46.201Z,2.75
2019-04-04T18:39:22.383Z,2.33
2019-04-04T18:41:51.220Z,2.77
2019-04-04T18:44:19.981Z,2.50
2019-04-04T18:46:55.474Z,2.62
2019-04-04T18:49:24.929Z,2.70
2019-04-04T18:51:55.359Z,3.07
2019-04-04T18:57:49.878Z,3.05
2019-04-04T19:00:25.986Z,2.80
2019-04-04T19:02:55.658Z,3.00
2019-04-04T19:05:25.131Z,3.27
2019-04-04T19:08:01.119Z,3.20
2019-04-04T19:10:29.945Z,3.15
2019-04-04T19:13:07.012Z,3.00
2019-04-04T19:15:36.823Z,3.13
2019-04-04T19:18:07.135Z,3.20
2019-04-04T19:20:36.214Z,3.60
2019-04-04T19:23:13.098Z,3.30
2019-04-04T19:25:48.887Z,3.90
2019-04-04T19:28:24.152Z,3.37
2019-04-04T19:30:53.663Z,3.17
2019-04-04T19:33:22.413Z,3.22
2019-04-04T19:35:57.359Z,3.17
2019-04-04T19:38:26.171Z,3.37
2019-04-04T19:40:54.942Z,3.15
2019-04-04T19:43:31.813Z,3.50
2019-04-04T19:46:00.649Z,3.40
2019-04-04T19:48:29.378Z,3.30
2019-04-04T19:51:05.270Z,3.20
2019-04-04T19:53:34.262Z,3.70
2019-04-04T19:56:15.638Z,3.37
2019-04-04T19:58:51.945Z,3.10
2019-04-04T20:01:29.373Z,3.00
2019-04-04T20:03:58.825Z,3.22
2019-04-04T20:06:27.887Z,3.15
2019-04-04T20:09:03.590Z,3.20
2019-04-04T20:11:32.965Z,3.22
2019-04-04T20:14:02.484Z,3.80
2019-04-04T20:16:37.879Z,3.10
2019-04-04T20:19:06.588Z,3.10
2019-04-04T20:21:35.417Z,3.40
2019-04-04T20:24:12.389Z,3.30
2019-04-04T20:26:50.426Z,3.40
2019-04-04T20:29:28.222Z,3.37
2019-04-04T20:31:56.990Z,3.42
2019-04-04T20:34:26.085Z,3.40
2019-04-04T20:37:01.157Z,3.40
2019-04-04T20:39:29.891Z,3.42
2019-04-04T20:41:59.484Z,3.42
2019-04-04T20:44:34.531Z,3.17
2019-04-04T20:47:03.342Z,3.50
2019-04-04T20:49:32.454Z,3.70
2019-04-04T20:52:07.672Z,3.62
2019-04-04T20:54:36.983Z,3.57
2019-04-04T20:57:19.208Z,3.85
2019-04-04T20:59:54.836Z,3.62
2019-04-04T21:02:30.377Z,3.50
2019-04-04T21:04:59.312Z,3.37
2019-04-04T21:07:28.320Z,3.30
2019-04-04T21:10:06.298Z,3.85
2019-04-04T21:12:35.012Z,3.63
2019-04-04T21:15:04.293Z,3.70
2019-04-04T21:17:39.948Z,3.75
2019-04-04T21:20:08.737Z,3.98
2019-04-04T21:22:37.453Z,4.17
2019-04-04T21:25:13.179Z,3.77
2019-04-04T21:27:48.281Z,3.92
2019-04-04T21:30:24.133Z,4.03
2019-04-04T21:32:52.903Z,3.90
2019-04-04T21:35:21.629Z,4.15
2019-04-04T21:37:57.511Z,4.42
2019-04-04T21:40:29.510Z,3.60
2019-04-04T21:42:59.308Z,4.20
2019-04-04T21:45:34.778Z,4.00
2019-04-04T21:48:04.349Z,3.90
2019-04-04T21:50:33.129Z,3.80
2019-04-04T21:53:09.060Z,4.40
2019-04-04T21:55:37.808Z,4.62
2019-04-04T21:58:20.744Z,4.12
2019-04-04T22:00:56.041Z,4.30
2019-04-04T22:03:31.776Z,4.20
2019-04-04T22:06:01.156Z,4.10
2019-04-04T22:08:29.935Z,4.10
2019-04-04T22:11:05.642Z,4.20
2019-04-04T22:13:34.389Z,4.58
2019-04-04T22:16:03.084Z,4.37
2019-04-04T22:18:38.679Z,4.10
2019-04-04T22:21:07.379Z,4.20
2019-04-04T22:23:36.099Z,4.77
2019-04-04T22:26:11.275Z,4.37
2019-04-04T22:28:47.026Z,4.30
2019-04-04T22:31:22.412Z,4.45
2019-04-04T22:33:51.308Z,4.78
2019-04-04T22:36:20.346Z,4.42
2019-04-04T22:38:55.680Z,4.90
2019-04-04T22:41:24.549Z,5.05
2019-04-04T22:44:02.898Z,5.10
2019-04-04T22:46:30.858Z,5.30
2019-04-04T22:48:59.770Z,4.85
2019-04-04T22:51:28.623Z,5.70
2019-04-04T22:54:03.701Z,5.60
2019-04-04T22:56:32.578Z,5.53
2019-04-04T22:59:14.138Z,5.03
2019-04-04T23:01:49.901Z,5.37
2019-04-04T23:04:26.119Z,5.12
2019-04-04T23:06:54.975Z,5.62
2019-04-04T23:09:23.964Z,5.30
2019-04-04T23:11:59.679Z,5.60
2019-04-04T23:14:28.954Z,5.50
2019-04-04T23:16:58.182Z,5.60
2019-04-04T23:19:34.327Z,5.33
2019-04-04T23:22:03.318Z,5.17
2019-04-04T23:24:32.209Z,5.63
2019-04-04T23:27:07.365Z,5.95
2019-04-04T23:29:43.261Z,5.50
2019-04-04T23:32:19.742Z,5.50
2019-04-04T23:34:48.639Z,5.83
2019-04-04T23:37:17.634Z,6.10
2019-04-04T23:39:53.016Z,5.77
2019-04-04T23:42:22.510Z,5.70
2019-04-04T23:45:00.882Z,5.92
2019-04-04T23:47:41.625Z,6.15
2019-04-04T23:50:00.026Z,5.67
2019-04-04T23:52:28.944Z,5.90
2019-04-04T23:55:04.831Z,5.97
2019-04-04T23:57:39.992Z,6.17
